createdAt,value
2023-04-29T00:00:11.265Z,3.25
2023-04-29T00:02:39.289Z,3.17
2023-04-29T00:05:08.473Z,3.53
2023-04-29T00:07:37.402Z,3.65
2023-04-29T00:10:06.120Z,3.47
2023-04-29T00:12:35.457Z,4.13
2023-04-29T00:15:04.732Z,3.80
2023-04-29T00:17:32.910Z,3.13
2023-04-29T00:20:00.908Z,3.58
2023-04-29T00:22:28.853Z,3.70
2023-04-29T00:24:56.876Z,4.32
2023-04-29T00:27:24.869Z,4.40
2023-04-29T00:29:54.583Z,4.22
2023-04-29T00:32:23.213Z,3.60
2023-04-29T00:34:51.633Z,3.83
2023-04-29T00:37:19.553Z,3.50
2023-04-29T00:39:47.545Z,3.80
2023-04-29T00:42:15.557Z,3.40
2023-04-29T00:44:43.476Z,3.10
2023-04-29T00:47:12.776Z,3.65
2023-04-29T00:49:41.252Z,3.80
2023-04-29T00:52:10.506Z,3.67
2023-04-29T00:54:38.788Z,4.07
2023-04-29T00:57:07.351Z,4.15
2023-04-29T00:59:35.343Z,3.72
2023-04-29T01:02:04.746Z,3.95
2023-04-29T01:04:34.159Z,3.88
2023-04-29T01:07:08.476Z,3.47
2023-04-29T01:09:51.491Z,3.15
2023-04-29T01:12:26.332Z,3.20
2023-04-29T01:15:04.258Z,2.30
2023-04-29T01:17:38.805Z,2.00
2023-04-29T01:20:11.024Z,3.10
2023-04-29T01:22:39.329Z,2.60
2023-04-29T01:25:09.976Z,2.40
2023-04-29T01:27:48.973Z,2.67
2023-04-29T01:30:29.216Z,2.90
2023-04-29T01:33:07.984Z,2.47
2023-04-29T01:35:47.620Z,2.30
2023-04-29T01:38:24.757Z,2.95
2023-04-29T01:41:05.492Z,3.08
2023-04-29T01:43:35.357Z,3.08
2023-04-29T01:46:05.799Z,3.35
2023-04-29T01:48:34.344Z,3.60
2023-04-29T01:51:02.771Z,3.55
2023-04-29T01:53:30.781Z,3.28
2023-04-29T01:56:00.100Z,3.15
2023-04-29T01:58:28.238Z,5.50
2023-04-29T02:00:56.192Z,4.60
2023-04-29T02:03:24.450Z,5.05
2023-04-29T02:05:52.932Z,4.47
2023-04-29T02:08:20.988Z,4.60
2023-04-29T02:10:56.503Z,4.50
2023-04-29T02:13:25.835Z,4.95
2023-04-29T02:15:53.802Z,5.13
2023-04-29T02:18:21.820Z,3.55
2023-04-29T02:20:51.748Z,3.90
2023-04-29T02:23:19.682Z,3.60
2023-04-29T02:25:47.731Z,3.35
2023-04-29T02:28:15.718Z,3.22
2023-04-29T02:30:45.029Z,3.40
2023-04-29T02:33:12.984Z,3.08
2023-04-29T02:35:40.919Z,3.33
2023-04-29T02:38:08.942Z,3.80
2023-04-29T02:40:41.903Z,3.67
2023-04-29T02:43:10.248Z,3.47
2023-04-29T02:45:38.828Z,4.80
2023-04-29T02:48:08.706Z,4.00
2023-04-29T02:50:36.737Z,3.70
2023-04-29T02:53:04.697Z,3.63
2023-04-29T02:55:33.014Z,3.78
2023-04-29T02:58:00.958Z,3.65
2023-04-29T03:00:28.939Z,3.75
2023-04-29T03:02:57.745Z,3.42
2023-04-29T03:05:27.333Z,3.90
2023-04-29T03:07:55.441Z,4.05
2023-04-29T03:10:23.572Z,3.53
2023-04-29T03:12:51.472Z,3.42
2023-04-29T03:15:20.273Z,3.53
2023-04-29T03:17:48.568Z,3.83
2023-04-29T03:20:16.596Z,3.80
2023-04-29T03:22:45.882Z,4.10
2023-04-29T03:25:13.905Z,3.92
2023-04-29T03:27:41.963Z,4.03
2023-04-29T03:30:10.640Z,4.50
2023-04-29T03:32:38.591Z,4.20
2023-04-29T03:35:07.514Z,5.40
2023-04-29T03:37:35.928Z,4.43
2023-04-29T03:40:06.331Z,4.80
2023-04-29T03:42:34.268Z,4.80
2023-04-29T03:45:02.220Z,3.92
2023-04-29T03:47:30.264Z,4.78
2023-04-29T03:49:58.288Z,4.78
2023-04-29T03:52:26.340Z,5.03
2023-04-29T03:54:54.278Z,4.88
2023-04-29T03:57:23.545Z,4.75
2023-04-29T03:59:51.672Z,5.32
2023-04-29T04:02:19.791Z,4.82
2023-04-29T04:04:48.037Z,5.10
2023-04-29T04:07:16.326Z,4.68
2023-04-29T04:09:44.264Z,5.00
2023-04-29T04:12:12.201Z,5.38
2023-04-29T04:14:41.455Z,5.00
2023-04-29T04:17:09.405Z,5.25
2023-04-29T04:19:37.500Z,5.10
2023-04-29T04:22:05.533Z,5.32
2023-04-29T04:24:33.449Z,5.55
2023-04-29T04:27:01.887Z,5.70
2023-04-29T04:29:29.831Z,5.40
2023-04-29T04:31:59.147Z,5.15
2023-04-29T04:34:27.308Z,5.00
2023-04-29T04:36:55.723Z,5.30
2023-04-29T04:39:23.679Z,5.82
2023-04-29T04:41:51.621Z,4.88
2023-04-29T04:44:19.542Z,5.25
2023-04-29T04:46:47.463Z,5.65
2023-04-29T04:49:16.738Z,4.97
2023-04-29T04:51:46.143Z,4.85
2023-04-29T04:54:14.056Z,5.35
2023-04-29T04:56:41.982Z,5.47
2023-04-29T04:59:09.927Z,4.85
2023-04-29T05:01:37.952Z,4.95
2023-04-29T05:04:06.279Z,5.60
2023-04-29T05:06:35.689Z,5.57
2023-04-29T05:09:03.631Z,5.40
2023-04-29T05:11:31.775Z,5.53
2023-04-29T05:14:00.062Z,6.15
2023-04-29T05:16:28.271Z,6.18
2023-04-29T05:18:56.258Z,5.75
2023-04-29T05:21:24.255Z,5.82
2023-04-29T05:23:53.542Z,6.20
2023-04-29T05:26:21.835Z,5.95
2023-04-29T05:28:49.800Z,6.45
2023-04-29T05:31:18.136Z,6.30
2023-04-29T05:33:46.108Z,6.63
2023-04-29T05:36:14.136Z,6.50
2023-04-29T05:38:42.682Z,6.80
2023-04-29T05:41:12.062Z,6.28
2023-04-29T05:43:40.164Z,6.35
2023-04-29T05:46:08.152Z,6.43
2023-04-29T05:48:36.291Z,6.28
2023-04-29T05:51:04.288Z,6.30
2023-04-29T05:53:33.316Z,7.13
2023-04-29T05:56:04.862Z,7.13
2023-04-29T05:58:34.366Z,6.53
2023-04-29T06:01:02.723Z,6.60
2023-04-29T06:03:31.307Z,6.15
2023-04-29T06:06:00.312Z,6.40
2023-04-29T06:08:28.586Z,6.80
2023-04-29T06:10:56.813Z,6.57
2023-04-29T06:13:25.059Z,6.50
2023-04-29T06:15:54.522Z,7.18
2023-04-29T06:18:23.302Z,6.13
2023-04-29T06:20:51.441Z,5.85
2023-04-29T06:23:19.420Z,6.50
2023-04-29T06:25:47.382Z,7.00
2023-04-29T06:28:15.857Z,7.95
2023-04-29T06:30:44.005Z,6.45
2023-04-29T06:33:13.933Z,5.80
2023-04-29T06:35:42.145Z,6.05
2023-04-29T06:38:10.384Z,6.35
2023-04-29T06:40:38.355Z,6.70
2023-04-29T06:43:09.390Z,5.72
2023-04-29T06:45:37.490Z,6.07
2023-04-29T06:48:06.257Z,6.43
2023-04-29T06:50:36.370Z,6.00
2023-04-29T06:53:04.506Z,6.65
2023-04-29T06:55:32.500Z,7.35
2023-04-29T06:58:03.555Z,7.25
2023-04-29T07:00:32.000Z,7.72
2023-04-29T07:03:01.660Z,8.02
2023-04-29T07:05:31.797Z,7.95
2023-04-29T07:08:01.162Z,8.65
2023-04-29T07:10:29.661Z,9.40
2023-04-29T07:12:58.299Z,8.48
2023-04-29T07:15:26.516Z,8.63
2023-04-29T07:17:54.604Z,9.65
2023-04-29T07:20:22.843Z,9.88
2023-04-29T07:22:50.880Z,9.55
2023-04-29T07:25:20.528Z,10.18
2023-04-29T07:27:48.920Z,9.27
2023-04-29T07:30:16.942Z,9.35
2023-04-29T07:32:44.922Z,8.80
2023-04-29T07:35:13.011Z,8.10
2023-04-29T07:37:43.824Z,8.80
2023-04-29T07:40:12.507Z,7.95
2023-04-29T07:42:41.886Z,7.70
2023-04-29T07:45:10.671Z,7.55
2023-04-29T07:47:38.716Z,8.10
2023-04-29T07:50:10.261Z,6.50
2023-04-29T07:52:38.281Z,6.13
2023-04-29T07:55:11.686Z,7.15
2023-04-29T07:57:41.127Z,6.68
2023-04-29T08:00:10.970Z,6.25
2023-04-29T08:02:41.807Z,5.68
2023-04-29T08:05:11.247Z,5.80
2023-04-29T08:07:42.610Z,6.50
2023-04-29T08:10:19.785Z,6.32
2023-04-29T08:12:52.900Z,7.15
2023-04-29T08:15:25.036Z,7.07
2023-04-29T08:17:56.493Z,5.68
2023-04-29T08:20:33.149Z,6.10
2023-04-29T08:23:10.673Z,6.07
2023-04-29T08:25:45.141Z,8.88
2023-04-29T08:28:30.259Z,4.80
2023-04-29T08:31:23.945Z,4.88
2023-04-29T08:33:58.762Z,4.78
2023-04-29T08:36:28.701Z,5.70
2023-04-29T08:38:57.168Z,5.82
2023-04-29T08:41:34.276Z,5.90
2023-04-29T08:44:04.066Z,5.80
2023-04-29T08:46:52.448Z,5.70
2023-04-29T08:49:21.036Z,5.28
2023-04-29T08:51:51.908Z,3.90
2023-04-29T08:54:22.031Z,3.38
2023-04-29T08:57:02.434Z,2.80
2023-04-29T08:59:35.900Z,2.92
2023-04-29T09:02:05.139Z,3.10
2023-04-29T09:04:43.137Z,3.10
2023-04-29T09:07:13.540Z,2.45
2023-04-29T09:09:42.697Z,2.60
2023-04-29T09:12:10.967Z,2.22
2023-04-29T09:14:40.756Z,2.28
2023-04-29T09:17:08.838Z,2.38
2023-04-29T09:19:38.134Z,2.25
2023-04-29T09:22:09.798Z,2.75
2023-04-29T09:24:41.227Z,3.40
2023-04-29T09:27:09.487Z,3.28
2023-04-29T09:30:07.660Z,3.70
2023-04-29T09:32:39.375Z,3.00
2023-04-29T09:35:29.454Z,3.28
2023-04-29T09:38:11.891Z,3.30
2023-04-29T09:40:57.352Z,3.08
2023-04-29T09:43:27.042Z,3.25
2023-04-29T09:45:59.432Z,3.50
2023-04-29T09:48:34.114Z,3.15
2023-04-29T09:51:05.125Z,3.53
2023-04-29T09:53:33.569Z,3.22
2023-04-29T09:56:06.318Z,3.33
2023-04-29T09:58:37.839Z,3.40
2023-04-29T10:01:21.701Z,2.83
2023-04-29T10:03:50.938Z,3.40
2023-04-29T10:06:19.400Z,2.95
2023-04-29T10:08:49.400Z,2.90
2023-04-29T10:11:18.598Z,3.20
2023-04-29T10:13:47.264Z,3.00
2023-04-29T10:16:29.020Z,3.25
2023-04-29T10:19:01.056Z,2.67
2023-04-29T10:21:31.613Z,2.30
2023-04-29T10:24:00.970Z,2.65
2023-04-29T10:26:32.414Z,2.38
2023-04-29T10:29:02.214Z,1.92
2023-04-29T10:31:33.584Z,2.00
2023-04-29T10:34:02.177Z,2.10
2023-04-29T10:36:31.807Z,3.10
2023-04-29T10:39:03.737Z,2.88
2023-04-29T10:41:38.287Z,2.72
2023-04-29T10:44:06.585Z,3.20
2023-04-29T10:46:37.780Z,3.03
2023-04-29T10:49:07.151Z,2.92
2023-04-29T10:51:36.246Z,3.05
2023-04-29T10:54:08.001Z,3.22
2023-04-29T10:56:41.579Z,3.00
2023-04-29T10:59:14.411Z,3.22
2023-04-29T11:01:46.403Z,3.37
2023-04-29T11:04:15.316Z,2.75
2023-04-29T11:06:47.440Z,2.92
2023-04-29T11:09:22.531Z,2.67
2023-04-29T11:12:03.206Z,2.50
2023-04-29T11:14:34.195Z,2.05
2023-04-29T11:17:05.777Z,2.47
2023-04-29T11:19:34.867Z,2.55
2023-04-29T11:22:15.019Z,2.40
2023-04-29T11:24:54.409Z,2.22
2023-04-29T11:27:25.561Z,2.35
2023-04-29T11:29:58.404Z,2.17
2023-04-29T11:32:29.539Z,2.00
2023-04-29T11:35:08.802Z,2.00
2023-04-29T11:37:36.998Z,1.92
2023-04-29T11:40:06.398Z,2.30
2023-04-29T11:42:36.598Z,2.00
2023-04-29T11:45:04.903Z,2.22
2023-04-29T11:47:34.647Z,1.88
2023-04-29T11:50:07.891Z,1.92
2023-04-29T11:52:37.623Z,1.90
2023-04-29T11:55:06.649Z,2.40
2023-04-29T11:57:35.211Z,3.42
2023-04-29T12:00:05.683Z,2.65
2023-04-29T12:02:37.053Z,2.58
2023-04-29T12:05:08.651Z,4.50
2023-04-29T12:07:37.180Z,2.20
2023-04-29T12:10:08.867Z,1.90
2023-04-29T12:12:37.185Z,2.00
2023-04-29T12:15:06.546Z,3.15
2023-04-29T12:17:36.018Z,2.53
2023-04-29T12:20:04.580Z,2.22
2023-04-29T12:22:32.899Z,2.50
2023-04-29T12:25:01.046Z,2.33
2023-04-29T12:27:29.060Z,2.10
2023-04-29T12:29:58.675Z,2.53
2023-04-29T12:32:37.184Z,3.28
2023-04-29T12:35:16.506Z,2.30
2023-04-29T12:37:49.846Z,2.20
2023-04-29T12:40:21.759Z,1.73
2023-04-29T12:42:50.261Z,1.30
2023-04-29T12:45:46.243Z,1.63
2023-04-29T12:48:25.429Z,1.20
2023-04-29T12:51:02.209Z,1.40
2023-04-29T12:53:32.045Z,1.80
2023-04-29T12:56:03.766Z,9.73
2023-04-29T12:58:34.416Z,8.75
2023-04-29T13:01:02.891Z,2.60
2023-04-29T13:03:33.562Z,1.63
2023-04-29T13:08:32.952Z,2.92
2023-04-29T13:11:01.335Z,2.22
2023-04-29T13:13:35.307Z,2.97
2023-04-29T13:16:03.485Z,1.80
2023-04-29T13:18:58.989Z,1.98
2023-04-29T13:21:35.184Z,2.38
2023-04-29T13:24:05.646Z,2.13
2023-04-29T13:26:36.253Z,2.20
2023-04-29T13:29:08.867Z,2.47
2023-04-29T13:31:40.856Z,2.60
2023-04-29T13:34:10.793Z,2.25
2023-04-29T13:36:44.732Z,1.83
2023-04-29T13:39:15.462Z,1.65
2023-04-29T13:41:46.167Z,1.70
2023-04-29T13:44:27.064Z,1.50
2023-04-29T13:47:05.578Z,1.92
2023-04-29T13:50:12.128Z,1.73
2023-04-29T13:58:40.996Z,1.75
2023-04-29T14:03:34.775Z,1.90
2023-04-29T14:06:31.690Z,1.50
2023-04-29T14:09:04.677Z,1.70
2023-04-29T14:11:37.050Z,1.85
2023-04-29T14:14:07.848Z,1.58
2023-04-29T14:16:36.289Z,1.60
2023-04-29T14:19:05.742Z,1.50
2023-04-29T14:21:45.618Z,1.50
2023-04-29T14:24:19.324Z,1.48
2023-04-29T14:29:37.622Z,1.77
2023-04-29T14:32:09.078Z,1.58
2023-04-29T14:34:49.891Z,1.63
2023-04-29T14:37:29.980Z,2.70
2023-04-29T14:40:01.130Z,1.88
2023-04-29T14:42:40.964Z,1.75
2023-04-29T14:45:12.976Z,2.22
2023-04-29T14:47:43.515Z,1.85
2023-04-29T14:50:16.655Z,2.10
2023-04-29T14:52:47.888Z,1.75
2023-04-29T14:55:22.105Z,1.25
2023-04-29T14:57:53.408Z,1.20
2023-04-29T15:00:21.789Z,1.40
2023-04-29T15:02:57.238Z,1.27
2023-04-29T15:05:36.328Z,1.80
2023-04-29T15:08:24.652Z,2.08
2023-04-29T15:10:52.999Z,1.40
2023-04-29T15:13:33.808Z,1.63
2023-04-29T15:16:10.617Z,1.65
2023-04-29T15:18:38.755Z,1.20
2023-04-29T15:21:10.377Z,1.60
2023-04-29T15:23:46.936Z,1.30
2023-04-29T15:26:17.070Z,1.73
2023-04-29T15:28:49.441Z,1.65
2023-04-29T15:31:17.687Z,1.55
2023-04-29T15:33:48.485Z,1.20
2023-04-29T15:36:16.684Z,1.35
2023-04-29T15:38:55.421Z,1.95
2023-04-29T15:41:29.822Z,6.45
2023-04-29T15:44:00.566Z,8.98
2023-04-29T15:46:31.600Z,7.43
2023-04-29T15:49:07.422Z,3.80
2023-04-29T15:51:43.237Z,3.10
2023-04-29T15:54:13.282Z,1.40
2023-04-29T15:56:48.137Z,1.50
2023-04-29T15:59:17.008Z,1.20
2023-04-29T16:01:49.066Z,1.30
2023-04-29T16:04:26.028Z,1.70
2023-04-29T16:07:09.167Z,1.25
2023-04-29T16:12:41.994Z,2.05
2023-04-29T16:18:46.043Z,2.55
2023-04-29T16:27:36.697Z,2.00
2023-04-29T16:30:36.449Z,1.70
2023-04-29T16:34:04.812Z,2.97
2023-04-29T16:36:50.951Z,2.15
2023-04-29T16:43:24.038Z,3.20
2023-04-29T16:52:00.710Z,3.40
2023-04-29T16:54:58.124Z,3.47
2023-04-29T16:57:53.240Z,4.03
2023-04-29T17:08:17.637Z,4.85
2023-04-29T17:14:42.881Z,5.00
2023-04-29T17:17:12.763Z,4.65
2023-04-29T17:19:43.376Z,5.03
2023-04-29T17:22:11.489Z,5.00
2023-04-29T17:24:39.715Z,4.30
2023-04-29T17:27:07.809Z,4.72
2023-04-29T17:29:36.039Z,5.13
2023-04-29T17:32:11.050Z,4.95
2023-04-29T17:34:40.908Z,4.65
2023-04-29T17:37:09.392Z,5.65
2023-04-29T17:39:37.410Z,5.32
2023-04-29T17:42:06.003Z,4.70
2023-04-29T17:44:38.228Z,5.45
2023-04-29T17:47:10.697Z,4.63
2023-04-29T17:49:41.280Z,4.53
2023-04-29T17:52:15.361Z,5.10
2023-04-29T17:54:43.868Z,4.82
2023-04-29T17:57:11.851Z,4.45
2023-04-29T18:02:27.668Z,4.93
2023-04-29T18:04:57.387Z,4.95
2023-04-29T18:07:27.489Z,4.70
2023-04-29T18:10:00.804Z,4.78
2023-04-29T18:12:44.088Z,4.57
2023-04-29T18:15:16.815Z,4.75
2023-04-29T18:17:45.275Z,5.20
2023-04-29T18:20:22.672Z,4.60
2023-04-29T18:22:51.400Z,5.70
2023-04-29T18:25:24.169Z,5.20
2023-04-29T18:28:07.724Z,5.07
2023-04-29T18:30:44.282Z,5.38
2023-04-29T18:33:16.749Z,5.30
2023-04-29T18:35:46.460Z,5.70
2023-04-29T18:38:17.565Z,5.07
2023-04-29T18:40:45.859Z,5.97
2023-04-29T18:43:17.292Z,6.28
2023-04-29T18:46:07.515Z,6.72
2023-04-29T18:48:36.697Z,8.25
2023-04-29T18:51:07.458Z,7.10
2023-04-29T18:53:51.604Z,6.13
2023-04-29T18:56:19.978Z,6.22
2023-04-29T18:58:51.312Z,6.20
2023-04-29T19:01:28.522Z,6.78
2023-04-29T19:03:57.720Z,6.88
2023-04-29T19:06:27.739Z,6.28
2023-04-29T19:08:56.427Z,7.00
2023-04-29T19:11:26.447Z,7.05
2023-04-29T19:13:55.043Z,6.47
2023-04-29T19:16:23.649Z,6.72
2023-04-29T19:18:55.035Z,6.47
2023-04-29T19:21:27.866Z,6.40
2023-04-29T19:24:00.704Z,5.83
2023-04-29T19:26:29.096Z,12.10
2023-04-29T19:28:59.824Z,7.55
2023-04-29T19:31:29.283Z,6.38
2023-04-29T19:33:57.436Z,6.40
2023-04-29T19:36:26.790Z,6.90
2023-04-29T19:38:56.616Z,7.35
2023-04-29T19:41:27.050Z,6.78
2023-04-29T19:44:10.238Z,6.38
2023-04-29T19:46:41.279Z,7.23
2023-04-29T19:49:12.837Z,6.20
2023-04-29T19:51:55.827Z,5.97
2023-04-29T19:54:37.296Z,6.55
2023-04-29T19:57:14.612Z,6.40
2023-04-29T19:59:47.139Z,6.70
2023-04-29T20:02:18.006Z,6.80
2023-04-29T20:04:51.499Z,6.80
2023-04-29T20:07:22.540Z,6.32
2023-04-29T20:09:54.647Z,6.18
2023-04-29T20:12:24.788Z,6.50
2023-04-29T20:14:53.186Z,5.85
2023-04-29T20:17:24.427Z,6.10
2023-04-29T20:19:57.044Z,6.03
2023-04-29T20:22:30.142Z,6.70
2023-04-29T20:25:05.958Z,6.10
2023-04-29T20:27:41.220Z,6.57
2023-04-29T20:30:15.259Z,6.50
2023-04-29T20:32:44.446Z,5.88
2023-04-29T20:35:13.055Z,6.57
2023-04-29T20:37:43.595Z,6.93
2023-04-29T20:40:19.302Z,6.82
2023-04-29T20:42:50.371Z,6.30
2023-04-29T20:45:24.094Z,6.57
2023-04-29T20:47:54.776Z,7.13
2023-04-29T20:50:27.812Z,6.50
2023-04-29T20:53:00.659Z,7.63
2023-04-29T20:55:33.330Z,7.18
2023-04-29T20:58:06.230Z,7.15
2023-04-29T21:00:34.408Z,7.80
2023-04-29T21:03:02.728Z,7.63
2023-04-29T21:05:31.023Z,8.68
2023-04-29T21:08:00.886Z,7.80
2023-04-29T21:10:30.590Z,7.25
2023-04-29T21:12:59.039Z,7.22
2023-04-29T21:15:29.404Z,7.90
2023-04-29T21:17:57.950Z,7.47
2023-04-29T21:20:26.396Z,7.38
2023-04-29T21:22:57.093Z,8.70
2023-04-29T21:25:25.473Z,7.80
2023-04-29T21:27:57.020Z,6.90
2023-04-29T21:30:26.125Z,7.30
2023-04-29T21:33:01.732Z,6.72
2023-04-29T21:35:30.805Z,6.88
2023-04-29T21:38:00.725Z,6.50
2023-04-29T21:40:29.063Z,7.20
2023-04-29T21:43:00.237Z,6.60
2023-04-29T21:45:28.528Z,7.55
2023-04-29T21:48:03.893Z,6.72
2023-04-29T21:50:32.140Z,7.63
2023-04-29T21:53:00.378Z,7.85
2023-04-29T21:55:28.619Z,6.90
2023-04-29T21:58:00.635Z,6.63
2023-04-29T22:00:33.413Z,6.53
2023-04-29T22:03:01.953Z,6.57
2023-04-29T22:05:30.295Z,7.30
2023-04-29T22:08:00.434Z,7.45
2023-04-29T22:10:29.030Z,6.75
2023-04-29T22:12:59.257Z,6.53
2023-04-29T22:15:29.868Z,6.30
2023-04-29T22:17:58.354Z,6.75
2023-04-29T22:20:27.283Z,7.20
2023-04-29T22:22:55.491Z,6.28
2023-04-29T22:25:23.797Z,6.28
2023-04-29T22:27:52.448Z,6.55
2023-04-29T22:30:22.047Z,6.72
2023-04-29T22:32:50.571Z,6.55
2023-04-29T22:35:18.921Z,6.45
2023-04-29T22:37:47.122Z,6.40
2023-04-29T22:40:15.814Z,6.90
2023-04-29T22:42:43.977Z,5.82
2023-04-29T22:45:13.267Z,6.25
2023-04-29T22:47:43.351Z,6.80
2023-04-29T22:50:12.077Z,6.50
2023-04-29T22:52:40.248Z,6.22
2023-04-29T22:55:09.904Z,6.32
2023-04-29T22:57:38.115Z,6.10
2023-04-29T23:00:07.558Z,6.43
2023-04-29T23:02:38.102Z,6.80
2023-04-29T23:05:09.143Z,7.20
2023-04-29T23:07:37.325Z,6.43
2023-04-29T23:10:06.369Z,7.63
2023-04-29T23:12:34.651Z,7.22
2023-04-29T23:15:02.733Z,6.93
2023-04-29T23:17:32.022Z,6.90
2023-04-29T23:20:00.540Z,7.10
2023-04-29T23:22:30.215Z,7.38
2023-04-29T23:24:58.471Z,6.53
2023-04-29T23:27:26.680Z,7.30
2023-04-29T23:29:55.009Z,7.30
2023-04-29T23:32:24.513Z,8.40
2023-04-29T23:34:54.084Z,8.60
2023-04-29T23:37:22.285Z,7.80
2023-04-29T23:39:56.168Z,7.68
2023-04-29T23:42:28.820Z,7.50
2023-04-29T23:44:57.010Z,7.82
2023-04-29T23:47:25.291Z,7.28
2023-04-29T23:49:53.577Z,8.23
2023-04-29T23:52:21.854Z,7.63
2023-04-29T23:54:49.913Z,7.65
2023-04-29T23:57:19.493Z,7.78
2023-04-29T23:59:48.659Z,7.72
